Terminal Aerodrome Forecast
Issued by NWS

Home | Current Version | Previous Version | Text Only | Print | Product List | Glossary On
Versions: 1 2 3 4 5 6 7 8 9 10 11 12 13 14 15 16
164
FTUS46 KLOX 220008 AAA
TAFSBA
TAF AMD
KSBA 220008Z 2200/2224 26015G23KT P6SM FEW040 SCT150 SCT200
     FM220200 33006KT P6SM SCT200
     FM220700 VRB03KT P6SM SCT200
     FM221800 27012KT P6SM SCT040
     FM222000 27015G25KT P6SM SCT040
     FM222300 28021G29KT P6SM FEW040=

USA.gov is the U.S. government's official web portal to all federal, state and local government web resources and services.